Time;durP1;ratioP1;P1;durP2;ratioP2;P2;SDS_P1;SDS_P2;PMS_P1;PMS_P2;Temp;Humidity;BMP_temperature;BMP_pressure;BME280_temperature;BME280_humidity;BME280_pressure;Samples;Min_cycle;Max_cycle;Signal;HPM_P1;HPM_P2
2022/01/20 00:01:23;;;;;;;18.63;2.67;;;4.10;99.90;;;;;;4979026;28;74984;-69
2022/01/20 00:03:50;;;;;;;;;;;4.00;99.90;;;;;;4960283;28;151269;-69
2022/01/20 00:28:11;;;;;;;20.52;1.80;;;4.00;99.90;;;;;;5050404;28;20056;-69
2022/01/20 00:30:46;;;;;;;14.48;2.10;;;4.00;99.90;;;;;;5025105;28;270986;-69
2022/01/20 00:33:22;;;;;;;20.73;2.42;;;3.90;99.90;;;;;;5043130;28;20050;-69
2022/01/20 00:38:24;;;;;;;20.13;2.05;;;3.90;99.90;;;;;;5041619;28;20045;-70
2022/01/20 00:40:51;;;;;;;18.25;1.52;;;3.80;99.90;;;;;;5027478;28;260323;-69
2022/01/20 00:43:17;;;;;;;19.95;2.13;;;3.70;99.90;;;;;;5049965;28;20060;-69
2022/01/20 00:45:43;;;;;;;19.77;2.25;;;3.70;99.90;;;;;;5010049;28;206490;-69
2022/01/20 00:48:10;;;;;;;17.17;2.13;;;3.70;99.90;;;;;;5032381;28;20101;-69
2022/01/20 00:50:36;;;;;;;19.60;2.28;;;3.70;99.90;;;;;;5019864;28;105496;-69
2022/01/20 00:53:03;;;;;;;14.50;1.77;;;3.60;99.90;;;;;;5034451;28;20064;-68
2022/01/20 00:55:29;;;;;;;21.58;2.10;;;3.50;99.90;;;;;;5020570;28;260824;-69
2022/01/20 00:57:55;;;;;;;21.83;2.28;;;3.50;99.90;;;;;;5047674;28;20048;-69
2022/01/20 01:00:22;;;;;;;23.70;2.53;;;3.40;99.90;;;;;;5027143;28;273626;-69
2022/01/20 01:02:48;;;;;;;22.38;2.33;;;3.40;99.90;;;;;;5029152;28;20053;-69
2022/01/20 01:05:14;;;;;;;18.02;2.00;;;3.40;99.90;;;;;;5011102;28;271899;-69
2022/01/20 01:07:48;;;;;;;19.52;1.95;;;3.30;99.90;;;;;;5042460;28;20064;-69
2022/01/20 01:10:21;;;;;;;22.50;2.55;;;3.30;99.90;;;;;;5024817;28;213325;-69
2022/01/20 01:13:03;;;;;;;18.05;2.03;;;3.40;99.90;;;;;;5028334;28;20049;-69
2022/01/20 01:15:37;;;;;;;21.30;2.55;;;3.40;99.90;;;;;;5015483;28;101372;-69
2022/01/20 01:23:31;;;;;;;17.08;2.05;;;3.50;99.90;;;;;;5045496;28;20482;-68
2022/01/20 01:25:58;;;;;;;21.17;1.95;;;3.50;99.90;;;;;;5024026;28;251969;-69
2022/01/20 01:28:27;;;;;;;17.98;1.60;;;3.60;99.90;;;;;;5047108;28;20053;-68
2022/01/20 01:33:35;;;;;;;19.27;2.20;;;3.90;99.90;;;;;;5030876;28;20498;-68
2022/01/20 01:36:03;;;;;;;14.30;1.88;;;4.00;99.90;;;;;;5029993;28;123524;-69
2022/01/20 01:38:37;;;;;;;16.40;1.83;;;4.10;99.90;;;;;;5006626;28;20045;-70
2022/01/20 01:41:13;;;;;;;12.82;1.52;;;4.10;99.90;;;;;;5024866;28;20037;-68
2022/01/20 01:43:42;;;;;;;16.35;1.95;;;4.00;99.90;;;;;;5027881;28;256227;-68
2022/01/20 01:46:11;;;;;;;18.42;2.00;;;4.00;99.90;;;;;;5045456;28;20064;-69
2022/01/20 01:48:42;;;;;;;12.25;1.67;;;3.90;99.90;;;;;;5014826;28;274952;-69
2022/01/20 01:51:09;;;;;;;14.68;1.63;;;3.90;99.90;;;;;;5032396;28;20421;-68
2022/01/20 01:53:36;;;;;;;13.45;1.48;;;3.90;99.90;;;;;;5049043;28;20057;-69
2022/01/20 01:56:04;;;;;;;11.88;1.67;;;3.90;99.90;;;;;;5014085;28;20045;-68
2022/01/20 01:58:30;;;;;;;15.90;1.73;;;3.90;99.90;;;;;;5033157;28;20052;-69
2022/01/20 02:00:57;;;;;;;13.82;1.50;;;3.80;99.90;;;;;;5034094;28;44624;-69
2022/01/20 02:03:24;;;;;;;16.27;1.63;;;3.90;99.90;;;;;;5046950;28;20052;-69
2022/01/20 02:06:19;;;;;;;14.70;1.60;;;3.80;99.90;;;;;;5011863;28;154427;-69
2022/01/20 02:08:53;;;;;;;19.05;1.67;;;3.80;99.90;;;;;;5033083;28;255038;-69
2022/01/20 02:19:33;;;;;;;15.25;1.48;;;3.90;99.90;;;;;;5025154;28;262669;-69
2022/01/20 02:22:02;;;;;;;19.13;1.70;;;3.90;99.90;;;;;;5047472;28;20045;-69
2022/01/20 02:24:29;;;;;;;18.92;1.77;;;3.90;99.90;;;;;;5026253;28;250570;-68
2022/01/20 02:26:56;;;;;;;14.70;1.70;;;4.00;99.90;;;;;;5047980;28;20528;-68
2022/01/20 02:29:23;;;;;;;13.52;1.70;;;3.90;99.90;;;;;;5010906;28;192884;-69
2022/01/20 02:31:54;;;;;;;17.75;2.00;;;3.90;99.90;;;;;;5039905;28;20093;-69
2022/01/20 02:34:23;;;;;;;16.35;1.90;;;3.80;99.90;;;;;;5028155;28;160328;-69
2022/01/20 02:36:49;;;;;;;18.77;1.98;;;3.80;99.90;;;;;;5033108;28;20526;-69
2022/01/20 02:39:59;;;;;;;16.40;2.03;;;3.80;99.90;;;;;;5030610;28;266826;-69
2022/01/20 02:45:03;;;;;;;22.33;2.53;;;3.80;99.90;;;;;;5010845;28;153980;-69
2022/01/20 02:47:32;;;;;;;24.25;2.90;;;3.70;99.90;;;;;;5046985;28;20682;-69
2022/01/20 02:49:59;;;;;;;24.75;3.15;;;3.70;99.90;;;;;;5009058;28;223368;-70
2022/01/20 02:52:27;;;;;;;19.88;2.15;;;3.60;99.90;;;;;;5045779;28;20052;-70
2022/01/20 02:54:54;;;;;;;21.83;2.45;;;3.60;99.90;;;;;;5021404;28;265270;-69
2022/01/20 02:57:21;;;;;;;18.20;2.00;;;3.50;99.90;;;;;;5043697;28;20049;-69
2022/01/20 02:59:47;;;;;;;20.98;3.03;;;3.50;99.90;;;;;;5015794;28;52325;-69
2022/01/20 03:02:13;;;;;;;26.25;3.00;;;3.50;99.90;;;;;;5043872;28;20049;-69
2022/01/20 03:04:39;;;;;;;25.83;2.72;;;3.50;99.90;;;;;;5013804;28;259547;-69
2022/01/20 03:07:06;;;;;;;28.63;3.42;;;3.40;99.90;;;;;;5046853;28;20052;-69
2022/01/20 03:09:33;;;;;;;22.77;3.00;;;3.50;99.90;;;;;;5023379;28;273855;-69
2022/01/20 03:11:59;;;;;;;21.50;2.92;;;3.50;99.90;;;;;;5045621;28;20052;-70
2022/01/20 03:14:25;;;;;;;29.23;2.80;;;3.50;99.90;;;;;;5018385;28;47919;-69
2022/01/20 03:16:52;;;;;;;25.05;3.42;;;3.50;99.90;;;;;;5046217;28;20049;-69
2022/01/20 03:19:18;;;;;;;26.70;2.97;;;3.60;99.90;;;;;;5026046;28;260641;-69
2022/01/20 03:21:45;;;;;;;31.83;3.65;;;3.60;99.90;;;;;;5040046;28;20049;-69
2022/01/20 03:24:12;;;;;;;30.83;3.90;;;3.60;99.90;;;;;;5036050;28;262752;-68
2022/01/20 03:26:38;;;;;;;21.17;3.13;;;3.70;99.90;;;;;;5033189;28;20049;-69
2022/01/20 03:29:06;;;;;;;29.10;4.18;;;3.70;99.90;;;;;;5022479;28;256998;-69
2022/01/20 03:31:32;;;;;;;29.10;3.42;;;3.70;99.90;;;;;;5014650;28;20049;-69
2022/01/20 03:33:59;;;;;;;38.60;3.83;;;3.70;99.90;;;;;;5025138;28;273485;-69
2022/01/20 03:36:25;;;;;;;25.52;3.55;;;3.70;99.90;;;;;;5045659;28;20073;-70
2022/01/20 03:38:52;;;;;;;31.35;3.67;;;3.60;99.90;;;;;;5028460;28;275843;-68
2022/01/20 03:41:19;;;;;;;24.80;3.40;;;3.60;99.90;;;;;;5044535;28;20045;-70
2022/01/20 03:43:46;;;;;;;28.08;4.25;;;3.60;99.90;;;;;;5029621;28;258115;-69
2022/01/20 03:46:13;;;;;;;25.67;3.15;;;3.60;99.90;;;;;;5046649;28;20057;-69
2022/01/20 03:48:49;;;;;;;27.27;4.07;;;3.60;99.90;;;;;;5025688;28;277374;-68
2022/01/20 03:51:20;;;;;;;33.08;3.50;;;3.60;99.90;;;;;;5046114;28;20053;-69
2022/01/20 03:53:51;;;;;;;26.98;3.55;;;3.60;99.90;;;;;;5028644;28;260877;-69
2022/01/20 03:56:19;;;;;;;19.63;2.55;;;3.60;99.90;;;;;;5047771;28;20053;-69
2022/01/20 03:58:46;;;;;;;28.13;3.57;;;3.50;99.90;;;;;;5011337;28;262213;-68
2022/01/20 04:01:14;;;;;;;22.80;3.28;;;3.50;99.90;;;;;;5056205;28;20398;-69
2022/01/20 04:03:41;;;;;;;22.10;2.65;;;3.50;99.90;;;;;;5018172;28;273147;-68
2022/01/20 04:06:07;;;;;;;19.50;2.60;;;3.60;99.90;;;;;;5031829;28;20052;-69
2022/01/20 04:08:39;;;;;;;22.20;2.72;;;3.60;99.90;;;;;;5047925;28;20500;-68
2022/01/20 04:11:08;;;;;;;18.80;2.90;;;3.60;99.90;;;;;;5019431;28;20500;-69
2022/01/20 04:13:35;;;;;;;17.98;2.50;;;3.60;99.90;;;;;;5053707;28;20128;-69
2022/01/20 04:16:15;;;;;;;23.13;2.90;;;3.60;99.90;;;;;;5015858;28;232137;-69
2022/01/20 04:18:52;;;;;;;20.65;3.17;;;3.60;99.90;;;;;;5032470;28;269911;-69
2022/01/20 04:21:24;;;;;;;21.23;2.75;;;3.60;99.90;;;;;;5026826;28;20422;-69
2022/01/20 04:23:50;;;;;;;23.17;3.35;;;3.60;99.90;;;;;;5030483;28;275053;-68
2022/01/20 04:26:17;;;;;;;20.48;2.60;;;3.60;99.90;;;;;;5029379;28;20067;-68
2022/01/20 04:28:43;;;;;;;26.57;3.10;;;3.50;99.90;;;;;;5032984;28;267036;-68
2022/01/20 04:31:09;;;;;;;19.67;2.78;;;3.50;99.90;;;;;;5045778;28;20244;-69
2022/01/20 04:33:35;;;;;;;19.15;2.53;;;3.40;99.90;;;;;;5046555;28;20453;-68
2022/01/20 04:36:04;;;;;;;19.73;2.17;;;3.40;99.90;;;;;;5009623;28;20045;-69
2022/01/20 04:38:30;;;;;;;21.65;2.70;;;3.30;99.90;;;;;;5024495;28;20053;-69
2022/01/20 04:40:56;;;;;;;23.48;2.97;;;3.30;99.90;;;;;;5017964;28;20549;-69
2022/01/20 04:43:24;;;;;;;18.63;2.40;;;3.40;99.90;;;;;;5048523;28;20060;-69
2022/01/20 04:45:58;;;;;;;21.80;3.15;;;3.30;99.90;;;;;;5013376;28;181740;-69
2022/01/20 04:48:41;;;;;;;17.23;2.70;;;3.30;99.90;;;;;;5054237;28;20052;-69
2022/01/20 04:59:23;;;;;;;21.02;3.10;;;3.30;99.90;;;;;;5028319;28;237012;-70
2022/01/20 05:01:49;;;;;;;22.23;2.42;;;3.30;99.90;;;;;;5044875;28;20048;-69
2022/01/20 05:04:15;;;;;;;26.00;3.22;;;3.40;99.90;;;;;;5002891;28;163098;-69
2022/01/20 05:06:44;;;;;;;20.38;2.67;;;3.50;99.90;;;;;;5046851;28;20053;-69
2022/01/20 05:09:17;;;;;;;24.10;3.15;;;3.50;99.90;;;;;;5026677;28;62705;-69
2022/01/20 05:11:47;;;;;;;17.60;2.58;;;3.50;99.90;;;;;;5034252;28;20056;-69
2022/01/20 05:14:13;;;;;;;21.53;2.80;;;3.50;99.90;;;;;;5027366;28;20056;-69
2022/01/20 05:16:39;;;;;;;25.67;3.22;;;3.40;99.90;;;;;;5033517;28;20048;-69
2022/01/20 05:19:05;;;;;;;24.05;3.15;;;3.50;99.90;;;;;;5013186;28;131926;-69
2022/01/20 05:21:32;;;;;;;22.08;3.35;;;3.50;99.90;;;;;;5047405;28;20494;-70
2022/01/20 05:23:58;;;;;;;21.90;3.05;;;3.50;99.90;;;;;;5015849;28;256844;-69
2022/01/20 05:26:24;;;;;;;22.42;2.40;;;3.40;99.90;;;;;;5048345;28;20259;-69
2022/01/20 05:28:50;;;;;;;14.43;1.63;;;3.30;99.90;;;;;;5012700;28;272434;-68
2022/01/20 05:31:16;;;;;;;19.83;2.17;;;3.20;99.90;;;;;;5045947;28;20048;-69
2022/01/20 05:33:42;;;;;;;9.02;1.70;;;3.10;99.90;;;;;;5034907;28;263616;-69
2022/01/20 05:36:08;;;;;;;14.98;2.15;;;3.10;99.90;;;;;;5070430;22;20052;-70
2022/01/20 05:38:35;;;;;;;13.30;1.70;;;3.00;99.90;;;;;;5044897;28;20057;-69
2022/01/20 05:41:01;;;;;;;11.30;1.70;;;3.00;99.90;;;;;;5060197;28;262247;-69
2022/01/20 05:43:27;;;;;;;13.00;1.92;;;2.90;99.90;;;;;;5039116;28;20056;-70
2022/01/20 05:45:53;;;;;;;14.35;2.03;;;2.90;99.90;;;;;;5039219;28;272012;-70
2022/01/20 05:48:33;;;;;;;13.55;1.90;;;2.70;99.90;;;;;;5028704;28;20025;-70
2022/01/20 05:51:00;;;;;;;17.38;1.90;;;2.70;99.90;;;;;;5022280;28;20521;-69
2022/01/20 05:53:26;;;;;;;15.57;2.53;;;2.60;99.90;;;;;;5052040;28;20061;-70
2022/01/20 05:55:53;;;;;;;13.35;2.00;;;2.60;99.90;;;;;;5022843;28;128842;-69
2022/01/20 05:58:19;;;;;;;18.10;2.53;;;2.60;99.90;;;;;;5021180;28;21474;-69
2022/01/20 06:00:46;;;;;;;17.38;2.08;;;2.50;99.90;;;;;;5030788;28;249804;-70
2022/01/20 06:05:57;;;;;;;16.17;2.10;;;2.50;99.90;;;;;;5018144;28;266550;-69
2022/01/20 06:08:24;;;;;;;18.23;2.30;;;2.50;99.90;;;;;;5028528;28;20517;-70
2022/01/20 06:10:50;;;;;;;17.50;2.63;;;2.40;99.90;;;;;;5023294;28;54089;-69
2022/01/20 06:13:17;;;;;;;15.30;2.42;;;2.50;99.90;;;;;;5001731;28;20050;-69
2022/01/20 06:15:43;;;;;;;20.95;2.83;;;2.50;99.90;;;;;;5013861;28;237415;-69
2022/01/20 06:18:10;;;;;;;16.73;2.00;;;2.50;99.90;;;;;;5021941;28;20053;-70
2022/01/20 06:20:37;;;;;;;23.05;2.85;;;2.60;99.90;;;;;;5036867;28;180599;-70
2022/01/20 06:23:08;;;;;;;16.52;2.30;;;2.60;99.90;;;;;;5033346;28;20099;-69
2022/01/20 06:25:34;;;;;;;23.33;2.50;;;2.70;99.90;;;;;;5037817;28;117154;-69
2022/01/20 06:28:01;;;;;;;18.15;2.65;;;2.60;99.90;;;;;;5015290;28;20300;-69
2022/01/20 06:30:29;;;;;;;18.40;2.70;;;2.70;99.90;;;;;;5032249;28;20077;-69
2022/01/20 06:32:55;;;;;;;20.38;2.50;;;2.70;99.90;;;;;;5023038;28;20506;-69
2022/01/20 06:35:23;;;;;;;19.13;3.10;;;2.60;99.90;;;;;;4997529;28;233201;-69
2022/01/20 06:37:49;;;;;;;21.33;3.00;;;2.70;99.90;;;;;;5027736;28;20050;-69
2022/01/20 06:40:15;;;;;;;16.58;2.15;;;2.70;99.90;;;;;;5022510;28;255087;-70
2022/01/20 06:42:42;;;;;;;19.35;2.65;;;2.70;99.90;;;;;;5032174;28;20041;-70
2022/01/20 06:45:11;;;;;;;15.18;2.03;;;2.80;99.90;;;;;;5024886;28;91294;-69
2022/01/20 06:47:37;;;;;;;23.08;2.83;;;2.70;99.90;;;;;;5021320;28;20049;-69
2022/01/20 06:50:05;;;;;;;22.08;3.13;;;2.70;99.90;;;;;;5027491;28;127034;-70
2022/01/20 06:52:32;;;;;;;17.85;2.70;;;2.70;99.90;;;;;;5009572;28;20478;-70
2022/01/20 06:55:00;;;;;;;19.13;2.60;;;2.70;99.90;;;;;;5005231;28;268194;-70
2022/01/20 06:57:26;;;;;;;17.95;2.05;;;2.70;99.90;;;;;;5018733;28;20053;-70
2022/01/20 06:59:53;;;;;;;18.90;2.15;;;2.70;99.90;;;;;;5024665;28;150533;-70
2022/01/20 07:02:19;;;;;;;15.85;2.10;;;2.70;99.90;;;;;;5036154;28;20060;-70
2022/01/20 07:04:46;;;;;;;17.80;2.40;;;2.70;99.90;;;;;;4994326;28;166218;-70
2022/01/20 07:07:12;;;;;;;21.75;3.03;;;2.70;99.90;;;;;;5022364;28;20057;-70
2022/01/20 07:09:39;;;;;;;15.30;2.67;;;2.70;99.90;;;;;;5029531;28;210058;-71
2022/01/20 07:12:06;;;;;;;14.25;2.42;;;2.70;99.90;;;;;;5048129;28;20049;-71
2022/01/20 07:14:32;;;;;;;17.50;2.67;;;2.70;99.90;;;;;;5033185;28;119691;-70
2022/01/20 07:16:58;;;;;;;17.88;2.45;;;2.70;99.90;;;;;;5013493;28;20049;-70
2022/01/20 07:19:25;;;;;;;18.10;2.65;;;2.70;99.90;;;;;;5011892;28;275002;-69
2022/01/20 07:21:51;;;;;;;19.02;2.53;;;2.70;99.90;;;;;;5023020;28;20053;-70
2022/01/20 07:24:18;;;;;;;19.10;3.00;;;2.70;99.90;;;;;;5005082;28;169971;-70
2022/01/20 07:26:44;;;;;;;19.98;3.00;;;2.70;99.90;;;;;;5018221;28;20080;-70
2022/01/20 07:29:10;;;;;;;19.73;2.70;;;2.70;99.90;;;;;;5011206;28;280883;-70
2022/01/20 07:31:36;;;;;;;21.45;2.40;;;2.70;99.90;;;;;;5027893;28;20050;-70
2022/01/20 07:34:02;;;;;;;19.83;2.40;;;2.80;99.90;;;;;;5008179;28;266140;-69
2022/01/20 07:36:29;;;;;;;21.70;3.08;;;2.90;99.90;;;;;;5029415;28;20056;-70
2022/01/20 07:38:55;;;;;;;19.33;2.50;;;2.90;99.90;;;;;;5003723;28;263148;-69
2022/01/20 07:41:22;;;;;;;22.02;3.30;;;2.80;99.90;;;;;;5045545;28;20399;-69
2022/01/20 07:43:48;;;;;;;23.80;2.90;;;2.80;99.90;;;;;;5001867;28;254365;-69
2022/01/20 07:46:14;;;;;;;22.13;2.55;;;2.80;99.90;;;;;;5042854;28;20049;-69
2022/01/20 07:48:40;;;;;;;20.60;3.00;;;2.80;99.90;;;;;;5002205;28;251446;-70
2022/01/20 07:51:06;;;;;;;25.35;3.47;;;2.80;99.90;;;;;;5031378;28;20049;-69
2022/01/20 07:53:34;;;;;;;26.80;3.20;;;2.80;99.90;;;;;;5018493;28;20052;-69
2022/01/20 07:56:01;;;;;;;22.83;2.70;;;2.70;99.90;;;;;;5013925;28;252553;-70
2022/01/20 07:58:27;;;;;;;18.48;2.63;;;2.70;99.90;;;;;;5021487;28;20605;-70
2022/01/20 08:00:53;;;;;;;21.65;2.97;;;2.70;99.90;;;;;;5034636;28;264276;-70
2022/01/20 08:03:20;;;;;;;22.02;3.05;;;2.80;99.90;;;;;;5014868;28;20065;-70
2022/01/20 08:05:46;;;;;;;21.13;2.42;;;2.70;99.90;;;;;;4999450;28;266102;-70
2022/01/20 08:08:12;;;;;;;22.00;2.95;;;2.70;99.90;;;;;;5026814;28;20033;-70
2022/01/20 08:10:38;;;;;;;21.15;2.40;;;2.70;99.90;;;;;;5016963;28;206824;-70
2022/01/20 08:13:04;;;;;;;20.50;2.53;;;2.70;99.90;;;;;;5052519;28;20128;-70
2022/01/20 08:15:31;;;;;;;20.02;2.50;;;2.60;99.90;;;;;;5029055;28;272169;-70
2022/01/20 08:17:57;;;;;;;22.02;3.30;;;2.70;99.90;;;;;;5019221;28;20050;-71
2022/01/20 08:20:23;;;;;;;17.50;2.55;;;2.70;99.90;;;;;;5041627;28;27010;-70
2022/01/20 08:22:49;;;;;;;22.73;2.55;;;2.70;99.90;;;;;;5027615;28;20056;-70
2022/01/20 08:25:18;;;;;;;14.20;2.08;;;2.70;99.90;;;;;;5028616;28;265787;-70
2022/01/20 08:27:46;;;;;;;24.25;2.65;;;2.90;99.90;;;;;;5023728;28;20053;-70
2022/01/20 08:30:15;;;;;;;22.55;2.50;;;2.90;99.90;;;;;;5020652;28;254025;-70
2022/01/20 08:32:42;;;;;;;20.70;2.97;;;3.00;99.90;;;;;;5027159;28;20489;-71
2022/01/20 08:35:09;;;;;;;17.40;2.15;;;3.00;99.90;;;;;;5021982;28;105129;-69
2022/01/20 08:37:40;;;;;;;21.52;2.67;;;3.00;99.90;;;;;;5024084;28;20041;-70
2022/01/20 08:40:09;;;;;;;19.50;3.00;;;3.10;99.90;;;;;;5025150;28;252215;-70
2022/01/20 08:42:36;;;;;;;21.98;2.72;;;3.20;99.90;;;;;;5031671;28;20053;-69
2022/01/20 08:45:02;;;;;;;21.98;2.90;;;3.20;99.90;;;;;;5023990;28;45105;-70
2022/01/20 08:47:28;;;;;;;24.00;3.42;;;3.10;99.90;;;;;;5024768;28;20049;-69
2022/01/20 08:49:54;;;;;;;21.67;2.75;;;2.90;99.90;;;;;;5005303;28;273307;-70
2022/01/20 08:52:21;;;;;;;26.67;3.17;;;2.90;99.90;;;;;;5017719;28;20048;-70
2022/01/20 08:54:47;;;;;;;19.38;2.67;;;2.80;99.90;;;;;;5016524;28;261179;-69
2022/01/20 08:57:14;;;;;;;19.67;3.13;;;2.80;99.90;;;;;;5020665;28;20057;-69
2022/01/20 08:59:42;;;;;;;22.40;3.53;;;2.70;99.90;;;;;;5020756;28;51396;-70
2022/01/20 09:02:09;;;;;;;23.42;2.97;;;2.70;99.90;;;;;;5019564;28;20057;-70
2022/01/20 09:04:36;;;;;;;17.38;2.30;;;2.60;99.90;;;;;;4992509;28;204053;-70
2022/01/20 09:07:02;;;;;;;20.23;2.40;;;2.60;99.90;;;;;;5019796;28;20054;-70
2022/01/20 09:09:28;;;;;;;18.92;2.33;;;2.60;99.90;;;;;;5013697;28;20048;-70
2022/01/20 09:17:26;;;;;;;25.25;3.13;;;2.60;99.90;;;;;;5026705;28;20130;-70
2022/01/20 09:19:52;;;;;;;19.80;2.78;;;2.60;99.90;;;;;;5003696;28;97539;-70
2022/01/20 09:22:19;;;;;;;16.52;2.20;;;2.60;99.90;;;;;;5021955;28;20052;-70
2022/01/20 09:24:46;;;;;;;19.13;2.67;;;2.70;99.90;;;;;;5011917;28;210450;-71
2022/01/20 09:27:14;;;;;;;20.08;2.72;;;2.70;99.90;;;;;;5042828;28;20056;-70
2022/01/20 09:29:41;;;;;;;23.83;2.92;;;2.80;99.90;;;;;;5007610;28;260788;-70
2022/01/20 09:32:12;;;;;;;20.73;2.63;;;3.00;99.90;;;;;;5019085;28;20045;-70
2022/01/20 09:34:39;;;;;;;19.83;2.90;;;3.20;99.90;;;;;;5009455;28;145635;-70
2022/01/20 09:37:05;;;;;;;11.18;1.67;;;3.20;99.90;;;;;;5021571;28;20426;-71
2022/01/20 09:39:31;;;;;;;11.73;1.70;;;2.80;99.90;;;;;;5032073;28;41448;-70
2022/01/20 09:41:58;;;;;;;12.35;2.08;;;2.50;99.90;;;;;;5005065;28;20530;-70
2022/01/20 09:44:25;;;;;;;17.67;2.75;;;2.40;99.90;;;;;;5013178;28;154764;-70
2022/01/20 09:46:52;;;;;;;18.60;2.38;;;2.40;99.90;;;;;;5020520;28;20527;-71
2022/01/20 09:49:18;;;;;;;15.27;2.15;;;2.40;99.90;;;;;;5003489;28;266591;-71
2022/01/20 09:51:44;;;;;;;15.13;2.13;;;2.40;99.90;;;;;;5020140;28;20058;-71
2022/01/20 09:54:11;;;;;;;16.48;2.42;;;2.40;99.90;;;;;;4998631;28;275618;-70
2022/01/20 09:56:39;;;;;;;21.27;2.70;;;2.30;99.90;;;;;;5023839;28;20049;-71
2022/01/20 09:59:06;;;;;;;18.27;1.98;;;2.30;99.90;;;;;;5024132;28;61316;-71
2022/01/20 10:01:36;;;;;;;15.75;2.30;;;2.20;99.90;;;;;;5024442;28;20046;-70
2022/01/20 10:04:02;;;;;;;19.55;2.83;;;2.30;99.90;;;;;;4988729;28;268309;-70
2022/01/20 10:06:29;;;;;;;21.48;2.78;;;2.30;99.90;;;;;;5020941;28;20532;-71
2022/01/20 10:08:59;;;;;;;16.08;1.70;;;2.50;99.90;;;;;;5000515;28;253325;-70
2022/01/20 10:11:28;;;;;;;16.80;1.85;;;2.50;99.90;;;;;;5037198;28;20057;-70
2022/01/20 10:13:56;;;;;;;20.15;2.40;;;2.60;99.90;;;;;;4996377;28;258605;-70
2022/01/20 10:16:23;;;;;;;16.77;2.15;;;2.50;99.90;;;;;;5024798;28;20053;-69
2022/01/20 10:18:57;;;;;;;20.27;2.53;;;2.50;99.90;;;;;;5002632;28;274400;-69
2022/01/20 10:21:29;;;;;;;22.23;2.67;;;2.40;99.90;;;;;;5027535;28;20050;-70
2022/01/20 10:24:07;;;;;;;17.97;2.37;;;2.30;99.90;;;;;;4999098;28;267417;-69
2022/01/20 10:26:33;;;;;;;18.85;2.60;;;2.40;99.90;;;;;;5026407;28;20438;-70
2022/01/20 10:29:08;;;;;;;19.77;2.13;;;2.30;99.90;;;;;;5008471;28;254432;-70
2022/01/20 10:31:49;;;;;;;17.27;2.83;;;2.30;99.90;;;;;;5040759;28;20054;-70
2022/01/20 10:34:37;;;;;;;17.90;2.55;;;2.40;99.90;;;;;;5008908;28;179758;-70
2022/01/20 10:37:16;;;;;;;20.02;2.55;;;2.50;99.90;;;;;;5034144;28;20061;-71
2022/01/20 10:39:46;;;;;;;20.20;2.55;;;2.60;99.90;;;;;;5017183;28;167016;-71
2022/01/20 10:42:20;;;;;;;18.52;2.40;;;2.70;99.90;;;;;;5029075;28;20052;-71
2022/01/20 10:44:51;;;;;;;18.52;2.35;;;2.80;99.90;;;;;;5011936;28;209172;-71
2022/01/20 10:47:19;;;;;;;18.02;2.70;;;2.90;99.90;;;;;;5012819;28;20054;-70
2022/01/20 10:49:47;;;;;;;13.60;2.17;;;2.90;99.90;;;;;;4995183;28;207321;-71
2022/01/20 10:52:16;;;;;;;17.40;2.25;;;3.00;99.90;;;;;;5021413;28;20064;-70
2022/01/20 10:54:43;;;;;;;17.08;2.45;;;2.90;99.90;;;;;;5010175;28;238463;-71
2022/01/20 10:57:11;;;;;;;18.50;2.40;;;2.90;99.90;;;;;;5017196;28;20053;-70
2022/01/20 11:00:03;;;;;;;18.25;2.40;;;3.00;99.90;;;;;;5015450;28;250772;-71
2022/01/20 11:02:29;;;;;;;21.70;3.00;;;3.00;99.90;;;;;;5019532;28;20053;-71
2022/01/20 11:04:57;;;;;;;21.17;2.60;;;3.10;99.90;;;;;;4992936;28;267070;-71
2022/01/20 11:07:24;;;;;;;18.50;2.50;;;3.20;99.90;;;;;;5020400;28;20471;-71
2022/01/20 11:09:59;;;;;;;20.23;2.33;;;3.20;99.90;;;;;;5015506;28;267197;-71
2022/01/20 11:12:25;;;;;;;20.27;2.72;;;3.30;99.90;;;;;;5001057;28;20061;-70
2022/01/20 11:14:53;;;;;;;20.50;3.17;;;3.50;99.90;;;;;;5015815;28;63067;-70
2022/01/20 11:17:22;;;;;;;20.98;2.80;;;3.70;99.90;;;;;;5020079;28;20481;-70
2022/01/20 11:19:49;;;;;;;17.98;2.30;;;3.70;99.90;;;;;;5014105;28;65768;-71
2022/01/20 11:22:17;;;;;;;20.05;3.40;;;3.90;99.90;;;;;;5021987;28;20414;-71
2022/01/20 11:24:43;;;;;;;16.83;2.50;;;3.90;99.90;;;;;;5036397;28;76924;-71
2022/01/20 11:27:14;;;;;;;23.55;2.92;;;4.00;99.90;;;;;;5012358;28;20517;-70
2022/01/20 11:29:47;;;;;;;20.60;2.55;;;4.10;99.90;;;;;;5031240;28;20426;-70
2022/01/20 11:32:25;;;;;;;20.95;2.85;;;4.20;99.90;;;;;;5008104;28;20049;-70
2022/01/20 11:35:02;;;;;;;17.08;2.30;;;4.20;99.90;;;;;;5047789;22;100242;-77
2022/01/20 11:37:34;;;;;;;20.33;2.35;;;4.20;99.90;;;;;;5067608;28;20061;-78
2022/01/20 11:40:12;;;;;;;19.92;3.15;;;4.20;99.90;;;;;;5050016;28;53917;-79
2022/01/20 11:42:39;;;;;;;21.50;2.72;;;4.40;99.90;;;;;;5064611;28;20053;-79
2022/01/20 11:45:25;;;;;;;17.98;2.47;;;4.50;99.90;;;;;;5043685;28;32310;-79
2022/01/20 11:47:51;;;;;;;17.67;2.47;;;4.60;99.90;;;;;;5074782;28;20472;-78
2022/01/20 11:50:19;;;;;;;18.30;2.70;;;4.50;99.90;;;;;;5064349;22;28583;-69
2022/01/20 11:52:45;;;;;;;14.90;2.70;;;4.40;99.90;;;;;;5064085;28;20053;-69
2022/01/20 11:55:13;;;;;;;16.13;1.98;;;4.10;99.90;;;;;;5034737;28;123108;-68
2022/01/20 11:57:40;;;;;;;18.00;2.60;;;4.00;99.90;;;;;;5038443;28;20101;-69
2022/01/20 12:00:24;;;;;;;15.35;2.60;;;3.90;99.90;;;;;;5038978;28;252147;-70
2022/01/20 12:02:51;;;;;;;14.13;2.00;;;3.80;99.90;;;;;;5066611;22;20064;-77
2022/01/20 12:05:28;;;;;;;17.92;2.20;;;3.80;99.90;;;;;;5044710;28;124310;-78
2022/01/20 12:08:14;;;;;;;14.45;2.58;;;3.80;99.90;;;;;;5067868;28;20051;-78
2022/01/20 12:10:43;;;;;;;13.98;2.17;;;3.80;99.90;;;;;;5018399;28;145585;-77
2022/01/20 12:13:12;;;;;;;17.30;1.98;;;3.80;99.90;;;;;;5058333;28;20052;-77
2022/01/20 12:15:53;;;;;;;16.00;2.05;;;3.80;99.90;;;;;;5064741;28;95432;-78
2022/01/20 12:18:19;;;;;;;23.27;2.58;;;3.90;99.90;;;;;;5083710;28;20063;-78
2022/01/20 12:20:45;;;;;;;15.55;2.30;;;4.00;99.90;;;;;;5052660;28;74418;-78
2022/01/20 12:23:13;;;;;;;13.95;2.05;;;4.20;99.90;;;;;;5059754;28;20039;-78
2022/01/20 12:25:39;;;;;;;18.17;2.35;;;4.30;99.90;;;;;;5049707;28;176898;-78
2022/01/20 12:28:11;;;;;;;19.73;2.83;;;5.00;99.90;;;;;;5076454;28;20047;-78
2022/01/20 12:30:44;;;;;;;22.98;2.75;;;6.20;99.90;;;;;;5058418;28;20851;-79
2022/01/20 12:33:14;;;;;;;20.35;2.90;;;5.90;99.90;;;;;;5073252;28;20052;-78
2022/01/20 12:35:52;;;;;;;20.63;2.88;;;6.50;99.90;;;;;;5030303;28;88817;-79
2022/01/20 12:38:32;;;;;;;20.60;2.70;;;7.20;99.90;;;;;;5090080;28;20057;-78
2022/01/20 12:41:04;;;;;;;17.00;2.47;;;7.90;99.90;;;;;;5054394;28;191627;-78
2022/01/20 12:43:44;;;;;;;16.23;2.65;;;8.50;99.90;;;;;;5069382;28;20056;-79
2022/01/20 12:46:13;;;;;;;15.10;2.78;;;9.00;98.60;;;;;;5029214;28;20059;-79
2022/01/20 12:48:59;;;;;;;20.88;3.13;;;9.40;96.30;;;;;;5033537;28;262453;-78
2022/01/20 12:51:42;;;;;;;18.00;2.15;;;9.80;94.50;;;;;;5063293;28;20062;-78
2022/01/20 12:54:28;;;;;;;13.73;2.33;;;7.60;91.60;;;;;;5059771;28;81201;-79
2022/01/20 12:57:02;;;;;;;20.15;2.38;;;6.30;95.60;;;;;;5043163;28;20047;-79
2022/01/20 12:59:34;;;;;;;21.67;2.70;;;6.00;96.40;;;;;;5044467;28;117614;-79
2022/01/20 13:02:02;;;;;;;16.75;2.97;;;6.30;95.70;;;;;;5054103;28;20048;-81
2022/01/20 13:04:31;;;;;;;18.50;2.25;;;5.90;96.00;;;;;;5022510;28;125087;-80
2022/01/20 13:07:03;;;;;;;17.17;2.40;;;5.50;96.00;;;;;;5061880;28;20040;-79
2022/01/20 13:09:39;;;;;;;18.92;2.50;;;5.20;97.70;;;;;;5048053;28;203648;-78
2022/01/20 13:12:06;;;;;;;15.32;2.35;;;4.90;99.80;;;;;;5080543;28;20090;-79
2022/01/20 13:14:39;;;;;;;15.32;1.98;;;4.80;99.90;;;;;;5080445;28;259198;-79
2022/01/20 13:17:07;;;;;;;20.42;2.83;;;5.00;99.10;;;;;;5056062;28;20429;-80
2022/01/20 13:19:45;;;;;;;17.23;2.65;;;6.50;96.90;;;;;;5068440;28;47737;-79
2022/01/20 13:22:32;;;;;;;16.33;2.47;;;7.50;95.10;;;;;;5062889;28;20053;-79
2022/01/20 13:25:12;;;;;;;15.23;2.05;;;6.70;93.80;;;;;;5046597;28;199654;-79
2022/01/20 13:27:51;;;;;;;16.00;2.20;;;7.80;94.30;;;;;;5090761;28;20047;-79
2022/01/20 13:30:37;;;;;;;15.88;2.40;;;8.60;91.50;;;;;;5039557;28;195465;-77
2022/01/20 13:33:15;;;;;;;17.05;2.42;;;9.10;91.60;;;;;;5070182;28;20060;-77
2022/01/20 13:35:44;;;;;;;13.73;2.55;;;9.20;90.20;;;;;;5036821;28;278775;-78
2022/01/20 13:38:11;;;;;;;18.10;2.67;;;9.20;88.10;;;;;;5073933;28;20055;-78
2022/01/20 13:40:43;;;;;;;16.23;2.20;;;9.90;90.90;;;;;;5055551;28;231244;-79
2022/01/20 13:45:40;;;;;;;15.25;2.63;;;9.20;82.90;;;;;;5067007;28;114427;-79
2022/01/20 13:48:07;;;;;;;19.83;2.95;;;9.20;84.00;;;;;;5063839;28;20059;-79
2022/01/20 13:50:44;;;;;;;19.52;3.08;;;8.10;83.20;;;;;;5043651;28;182288;-78
2022/01/20 13:53:20;;;;;;;18.75;2.72;;;7.00;86.70;;;;;;5071262;28;20078;-79
2022/01/20 13:55:47;;;;;;;19.35;3.03;;;6.30;90.00;;;;;;5037901;28;187231;-78